SWA1519 KSAN-KOAK
Flight info
| Callsign | SWA1519 |
|---|---|
| Flight time | N/A |
| Altitude | 36000 |
| Route | PADRZ2 OROSZ DCT COREZ DCT RGOOD EMZOH4 |
| Aircraft | B737/M-SDE2E3FGHIRWXY/LB1 |
Departure
| Time | 2026-04-30 22:24 |
|---|---|
| Airport | San Diego International Airport (KSAN) |
Arrival
| Time | N/A |
|---|---|
| Airport | San Francisco Bay Oakland International Airport (KOAK) |
| Time | Latitude | Longitude | Altitude | Speed | Heading |
|---|---|---|---|---|---|
| 2026-04-30 22:23 | 32.87219 | -117.43100 | 10653 ft | 330 kts | 310° |
| 2026-04-30 22:24 | 32.88166 | -117.44558 | 10942 ft | 342 kts | 310° |
| 2026-04-30 22:24 | 32.90121 | -117.47594 | 12072 ft | 347 kts | 309° |
| 2026-04-30 22:24 | 32.91586 | -117.49875 | 13054 ft | 347 kts | 310° |
| 2026-04-30 22:24 | 32.93053 | -117.52159 | 13996 ft | 348 kts | 310° |
| 2026-04-30 22:25 | 32.94533 | -117.54464 | 14803 ft | 353 kts | 310° |
| 2026-04-30 22:25 | 32.96034 | -117.56802 | 15619 ft | 357 kts | 310° |
| 2026-04-30 22:25 | 32.97036 | -117.58364 | 16174 ft | 360 kts | 310° |
| 2026-04-30 22:25 | 32.98566 | -117.60752 | 16997 ft | 364 kts | 310° |
| 2026-04-30 22:26 | 33.01675 | -117.65609 | 18528 ft | 374 kts | 310° |
| 2026-04-30 22:26 | 33.03258 | -117.68084 | 19203 ft | 378 kts | 311° |
| 2026-04-30 22:26 | 33.04857 | -117.70585 | 19935 ft | 381 kts | 311° |
| 2026-04-30 22:27 | 33.06492 | -117.73088 | 20647 ft | 383 kts | 315° |
| 2026-04-30 22:27 | 33.08411 | -117.75270 | 21343 ft | 382 kts | 323° |
| 2026-04-30 22:27 | 33.12563 | -117.79314 | 22670 ft | 389 kts | 324° |
| 2026-04-30 22:28 | 33.16748 | -117.83489 | 23900 ft | 396 kts | 323° |
| 2026-04-30 22:28 | 33.18848 | -117.85629 | 24492 ft | 398 kts | 323° |
| 2026-04-30 22:29 | 33.25291 | -117.91987 | 26176 ft | 403 kts | 324° |
| 2026-04-30 22:29 | 33.27466 | -117.94091 | 26712 ft | 406 kts | 324° |
| 2026-04-30 22:30 | 33.36310 | -118.02709 | 28751 ft | 414 kts | 323° |
| 2026-04-30 22:31 | 33.42985 | -118.09253 | 30587 ft | 408 kts | 322° |
| 2026-04-30 22:32 | 33.49508 | -118.15661 | 32226 ft | 403 kts | 322° |
| 2026-04-30 22:32 | 33.53825 | -118.19907 | 33284 ft | 399 kts | 322° |
| 2026-04-30 22:33 | 33.60651 | -118.25438 | 34442 ft | 397 kts | 336° |
| 2026-04-30 22:33 | 33.65678 | -118.28105 | 35191 ft | 395 kts | 335° |
| 2026-04-30 22:34 | 33.73190 | -118.32206 | 35925 ft | 400 kts | 335° |
| 2026-04-30 22:35 | 33.78270 | -118.34963 | 35952 ft | 399 kts | 336° |
| 2026-04-30 22:36 | 33.90934 | -118.41288 | 35954 ft | 394 kts | 336° |
| 2026-04-30 22:37 | 34.01062 | -118.46414 | 35958 ft | 395 kts | 336° |
| 2026-04-30 22:38 | 34.11219 | -118.51575 | 35932 ft | 397 kts | 336° |
| 2026-04-30 22:39 | 34.18846 | -118.55457 | 35925 ft | 398 kts | 336° |
| 2026-04-30 22:40 | 34.34145 | -118.63222 | 35903 ft | 397 kts | 336° |
| 2026-04-30 22:41 | 34.46735 | -118.69967 | 35921 ft | 394 kts | 328° |
| 2026-04-30 22:43 | 34.60811 | -118.80186 | 35945 ft | 393 kts | 328° |
| 2026-04-30 22:44 | 34.70270 | -118.86929 | 35958 ft | 395 kts | 328° |
| 2026-04-30 22:45 | 34.84554 | -118.97089 | 35947 ft | 397 kts | 328° |
| 2026-04-30 22:47 | 34.98859 | -119.07324 | 35959 ft | 398 kts | 328° |
| 2026-04-30 22:48 | 35.08307 | -119.14102 | 35939 ft | 390 kts | 328° |
| 2026-04-30 22:49 | 35.22247 | -119.24141 | 35933 ft | 388 kts | 328° |
| 2026-04-30 22:51 | 35.36230 | -119.34251 | 35936 ft | 390 kts | 327° |
| 2026-04-30 22:52 | 35.43245 | -119.39339 | 35936 ft | 391 kts | 327° |
| 2026-04-30 22:53 | 35.52614 | -119.46150 | 35942 ft | 391 kts | 327° |
| 2026-04-30 22:53 | 35.59230 | -119.51909 | 35934 ft | 388 kts | 319° |
| 2026-04-30 22:55 | 35.69529 | -119.62524 | 35933 ft | 385 kts | 319° |
| 2026-04-30 22:56 | 35.77749 | -119.70958 | 35937 ft | 384 kts | 319° |
| 2026-04-30 22:57 | 35.87994 | -119.81501 | 35951 ft | 384 kts | 318° |
| 2026-04-30 22:58 | 35.95915 | -119.90297 | 35943 ft | 383 kts | 314° |
| 2026-04-30 22:59 | 36.07379 | -120.04017 | 35952 ft | 383 kts | 314° |